sensor_id;sensor_type;location;lat;lon;timestamp;P1;durP1;ratioP1;P2;durP2;ratioP2
46407;SDS011;32110;45.724;21.276;2023-06-01T00:01:51;13.85;;;5.22;;
46407;SDS011;32110;45.724;21.276;2023-06-01T00:04:17;16.60;;;5.40;;
46407;SDS011;32110;45.724;21.276;2023-06-01T00:06:42;12.95;;;4.90;;
46407;SDS011;32110;45.724;21.276;2023-06-01T00:09:08;10.00;;;5.10;;
46407;SDS011;32110;45.724;21.276;2023-06-01T00:11:33;9.85;;;5.10;;
46407;SDS011;32110;45.724;21.276;2023-06-01T00:13:59;14.15;;;5.18;;
46407;SDS011;32110;45.724;21.276;2023-06-01T00:16:25;10.98;;;5.20;;
46407;SDS011;32110;45.724;21.276;2023-06-01T00:18:50;13.73;;;5.40;;
46407;SDS011;32110;45.724;21.276;2023-06-01T00:21:17;9.75;;;5.03;;
46407;SDS011;32110;45.724;21.276;2023-06-01T00:23:43;9.07;;;5.50;;
46407;SDS011;32110;45.724;21.276;2023-06-01T00:26:09;12.05;;;5.30;;
46407;SDS011;32110;45.724;21.276;2023-06-01T00:28:35;8.68;;;5.70;;
46407;SDS011;32110;45.724;21.276;2023-06-01T00:31:00;15.32;;;6.10;;
46407;SDS011;32110;45.724;21.276;2023-06-01T00:33:26;9.55;;;5.85;;
46407;SDS011;32110;45.724;21.276;2023-06-01T00:35:51;10.18;;;5.25;;
46407;SDS011;32110;45.724;21.276;2023-06-01T00:38:17;12.07;;;5.68;;
46407;SDS011;32110;45.724;21.276;2023-06-01T00:40:43;10.30;;;5.68;;
46407;SDS011;32110;45.724;21.276;2023-06-01T00:43:09;15.18;;;6.78;;
46407;SDS011;32110;45.724;21.276;2023-06-01T00:45:35;11.20;;;5.72;;
46407;SDS011;32110;45.724;21.276;2023-06-01T00:48:00;14.10;;;5.85;;
46407;SDS011;32110;45.724;21.276;2023-06-01T00:50:26;13.40;;;5.90;;
46407;SDS011;32110;45.724;21.276;2023-06-01T00:52:52;10.02;;;5.72;;
46407;SDS011;32110;45.724;21.276;2023-06-01T00:55:19;12.38;;;5.90;;
46407;SDS011;32110;45.724;21.276;2023-06-01T00:57:45;17.50;;;6.85;;
46407;SDS011;32110;45.724;21.276;2023-06-01T01:00:12;10.48;;;6.00;;
46407;SDS011;32110;45.724;21.276;2023-06-01T01:02:41;11.85;;;6.10;;
46407;SDS011;32110;45.724;21.276;2023-06-01T01:05:09;9.57;;;6.20;;
46407;SDS011;32110;45.724;21.276;2023-06-01T01:07:45;12.07;;;5.70;;
46407;SDS011;32110;45.724;21.276;2023-06-01T01:15:11;15.10;;;6.13;;
46407;SDS011;32110;45.724;21.276;2023-06-01T01:17:46;9.60;;;5.43;;
46407;SDS011;32110;45.724;21.276;2023-06-01T01:20:23;16.10;;;5.68;;
46407;SDS011;32110;45.724;21.276;2023-06-01T01:23:14;10.45;;;5.90;;
46407;SDS011;32110;45.724;21.276;2023-06-01T01:31:03;9.93;;;5.50;;
46407;SDS011;32110;45.724;21.276;2023-06-01T01:33:34;9.80;;;5.40;;
46407;SDS011;32110;45.724;21.276;2023-06-01T01:36:01;11.63;;;5.70;;
46407;SDS011;32110;45.724;21.276;2023-06-01T01:38:27;10.68;;;5.45;;
46407;SDS011;32110;45.724;21.276;2023-06-01T01:40:52;13.13;;;5.90;;
46407;SDS011;32110;45.724;21.276;2023-06-01T01:43:18;10.25;;;5.95;;
46407;SDS011;32110;45.724;21.276;2023-06-01T01:45:45;8.68;;;5.45;;
46407;SDS011;32110;45.724;21.276;2023-06-01T01:48:17;10.07;;;5.72;;
46407;SDS011;32110;45.724;21.276;2023-06-01T01:50:53;10.98;;;5.80;;
46407;SDS011;32110;45.724;21.276;2023-06-01T01:53:23;14.13;;;5.80;;
46407;SDS011;32110;45.724;21.276;2023-06-01T01:55:51;9.13;;;5.28;;
46407;SDS011;32110;45.724;21.276;2023-06-01T01:58:18;10.50;;;6.13;;
46407;SDS011;32110;45.724;21.276;2023-06-01T02:00:43;10.65;;;6.25;;
46407;SDS011;32110;45.724;21.276;2023-06-01T02:03:16;12.30;;;5.88;;
46407;SDS011;32110;45.724;21.276;2023-06-01T02:05:42;10.63;;;5.65;;
46407;SDS011;32110;45.724;21.276;2023-06-01T02:08:08;14.73;;;5.95;;
46407;SDS011;32110;45.724;21.276;2023-06-01T02:10:33;11.85;;;5.53;;
46407;SDS011;32110;45.724;21.276;2023-06-01T02:12:59;14.95;;;6.32;;
46407;SDS011;32110;45.724;21.276;2023-06-01T02:15:24;13.45;;;6.30;;
46407;SDS011;32110;45.724;21.276;2023-06-01T02:17:50;12.43;;;5.82;;
46407;SDS011;32110;45.724;21.276;2023-06-01T02:20:16;9.35;;;5.82;;
46407;SDS011;32110;45.724;21.276;2023-06-01T02:22:42;10.07;;;5.53;;
46407;SDS011;32110;45.724;21.276;2023-06-01T02:25:07;14.27;;;5.82;;
46407;SDS011;32110;45.724;21.276;2023-06-01T02:27:33;10.88;;;5.93;;
46407;SDS011;32110;45.724;21.276;2023-06-01T02:29:58;10.02;;;5.78;;
46407;SDS011;32110;45.724;21.276;2023-06-01T02:32:24;8.75;;;5.40;;
46407;SDS011;32110;45.724;21.276;2023-06-01T02:34:50;8.82;;;5.97;;
46407;SDS011;32110;45.724;21.276;2023-06-01T02:37:15;10.45;;;5.63;;
46407;SDS011;32110;45.724;21.276;2023-06-01T02:39:41;14.95;;;6.43;;
46407;SDS011;32110;45.724;21.276;2023-06-01T02:42:07;12.60;;;6.40;;
46407;SDS011;32110;45.724;21.276;2023-06-01T02:44:32;16.65;;;6.28;;
46407;SDS011;32110;45.724;21.276;2023-06-01T02:46:58;16.17;;;7.18;;
46407;SDS011;32110;45.724;21.276;2023-06-01T02:49:23;9.70;;;6.30;;
46407;SDS011;32110;45.724;21.276;2023-06-01T02:51:49;15.15;;;7.15;;
46407;SDS011;32110;45.724;21.276;2023-06-01T02:54:14;16.15;;;6.45;;
46407;SDS011;32110;45.724;21.276;2023-06-01T02:56:39;15.05;;;6.88;;
46407;SDS011;32110;45.724;21.276;2023-06-01T02:59:05;18.02;;;6.35;;
46407;SDS011;32110;45.724;21.276;2023-06-01T03:01:31;17.38;;;7.78;;
46407;SDS011;32110;45.724;21.276;2023-06-01T03:04:01;11.98;;;6.25;;
46407;SDS011;32110;45.724;21.276;2023-06-01T03:06:29;15.73;;;6.75;;
46407;SDS011;32110;45.724;21.276;2023-06-01T03:08:57;13.45;;;6.47;;
46407;SDS011;32110;45.724;21.276;2023-06-01T03:11:23;14.25;;;6.78;;
46407;SDS011;32110;45.724;21.276;2023-06-01T03:13:49;11.13;;;6.25;;
46407;SDS011;32110;45.724;21.276;2023-06-01T03:16:15;17.63;;;6.50;;
46407;SDS011;32110;45.724;21.276;2023-06-01T03:18:41;10.68;;;6.60;;
46407;SDS011;32110;45.724;21.276;2023-06-01T03:21:07;15.57;;;6.50;;
46407;SDS011;32110;45.724;21.276;2023-06-01T03:23:32;11.65;;;6.95;;
46407;SDS011;32110;45.724;21.276;2023-06-01T03:25:57;13.98;;;6.55;;
46407;SDS011;32110;45.724;21.276;2023-06-01T03:28:23;23.85;;;6.88;;
46407;SDS011;32110;45.724;21.276;2023-06-01T03:30:48;15.20;;;6.82;;
46407;SDS011;32110;45.724;21.276;2023-06-01T03:33:13;15.35;;;6.03;;
46407;SDS011;32110;45.724;21.276;2023-06-01T03:35:40;15.63;;;6.32;;
46407;SDS011;32110;45.724;21.276;2023-06-01T03:38:05;11.93;;;6.25;;
46407;SDS011;32110;45.724;21.276;2023-06-01T03:40:31;13.27;;;6.68;;
46407;SDS011;32110;45.724;21.276;2023-06-01T03:42:56;12.18;;;6.40;;
46407;SDS011;32110;45.724;21.276;2023-06-01T03:45:21;13.48;;;7.03;;
46407;SDS011;32110;45.724;21.276;2023-06-01T03:47:47;15.57;;;6.45;;
46407;SDS011;32110;45.724;21.276;2023-06-01T03:50:12;11.63;;;6.57;;
46407;SDS011;32110;45.724;21.276;2023-06-01T03:52:37;13.03;;;5.97;;
46407;SDS011;32110;45.724;21.276;2023-06-01T03:55:03;21.92;;;6.63;;
46407;SDS011;32110;45.724;21.276;2023-06-01T03:57:38;11.48;;;6.35;;
46407;SDS011;32110;45.724;21.276;2023-06-01T04:00:07;10.55;;;6.70;;
46407;SDS011;32110;45.724;21.276;2023-06-01T04:02:46;15.75;;;8.40;;
46407;SDS011;32110;45.724;21.276;2023-06-01T04:05:13;17.55;;;7.30;;
46407;SDS011;32110;45.724;21.276;2023-06-01T04:07:42;16.45;;;7.72;;
46407;SDS011;32110;45.724;21.276;2023-06-01T04:10:07;13.65;;;7.53;;
46407;SDS011;32110;45.724;21.276;2023-06-01T04:12:32;12.63;;;6.80;;
46407;SDS011;32110;45.724;21.276;2023-06-01T04:14:57;14.47;;;6.50;;
46407;SDS011;32110;45.724;21.276;2023-06-01T04:17:23;10.53;;;6.50;;
46407;SDS011;32110;45.724;21.276;2023-06-01T04:19:48;9.87;;;6.40;;
46407;SDS011;32110;45.724;21.276;2023-06-01T04:22:13;13.20;;;7.03;;
46407;SDS011;32110;45.724;21.276;2023-06-01T04:24:38;13.37;;;6.60;;
46407;SDS011;32110;45.724;21.276;2023-06-01T04:27:04;11.25;;;5.95;;
46407;SDS011;32110;45.724;21.276;2023-06-01T04:29:29;14.73;;;6.40;;
46407;SDS011;32110;45.724;21.276;2023-06-01T04:31:55;10.13;;;6.37;;
46407;SDS011;32110;45.724;21.276;2023-06-01T04:34:20;8.55;;;5.88;;
46407;SDS011;32110;45.724;21.276;2023-06-01T04:36:46;13.40;;;6.35;;
46407;SDS011;32110;45.724;21.276;2023-06-01T04:39:16;13.35;;;5.90;;
46407;SDS011;32110;45.724;21.276;2023-06-01T04:41:41;8.98;;;6.10;;
46407;SDS011;32110;45.724;21.276;2023-06-01T04:44:06;10.50;;;5.70;;
46407;SDS011;32110;45.724;21.276;2023-06-01T04:46:33;11.07;;;5.93;;
46407;SDS011;32110;45.724;21.276;2023-06-01T04:49:00;11.20;;;6.40;;
46407;SDS011;32110;45.724;21.276;2023-06-01T04:51:29;9.43;;;6.03;;
46407;SDS011;32110;45.724;21.276;2023-06-01T04:53:56;9.70;;;5.72;;
46407;SDS011;32110;45.724;21.276;2023-06-01T04:56:22;10.95;;;5.68;;
46407;SDS011;32110;45.724;21.276;2023-06-01T04:58:55;14.27;;;5.90;;
46407;SDS011;32110;45.724;21.276;2023-06-01T05:01:24;9.85;;;5.50;;
46407;SDS011;32110;45.724;21.276;2023-06-01T05:03:50;11.30;;;4.82;;
46407;SDS011;32110;45.724;21.276;2023-06-01T05:06:16;9.70;;;5.20;;
46407;SDS011;32110;45.724;21.276;2023-06-01T05:08:42;12.40;;;5.67;;
46407;SDS011;32110;45.724;21.276;2023-06-01T05:11:08;11.03;;;6.17;;
46407;SDS011;32110;45.724;21.276;2023-06-01T05:13:36;15.77;;;6.00;;
46407;SDS011;32110;45.724;21.276;2023-06-01T05:16:05;13.70;;;6.20;;
46407;SDS011;32110;45.724;21.276;2023-06-01T05:18:30;12.00;;;5.60;;
46407;SDS011;32110;45.724;21.276;2023-06-01T05:20:56;9.75;;;5.53;;
46407;SDS011;32110;45.724;21.276;2023-06-01T05:23:21;15.33;;;5.50;;
46407;SDS011;32110;45.724;21.276;2023-06-01T05:25:46;7.55;;;5.40;;
46407;SDS011;32110;45.724;21.276;2023-06-01T05:28:12;10.53;;;5.50;;
46407;SDS011;32110;45.724;21.276;2023-06-01T05:30:37;6.67;;;5.30;;
46407;SDS011;32110;45.724;21.276;2023-06-01T05:33:02;8.77;;;5.07;;
46407;SDS011;32110;45.724;21.276;2023-06-01T05:35:28;9.27;;;5.13;;
46407;SDS011;32110;45.724;21.276;2023-06-01T05:37:53;9.35;;;4.97;;
46407;SDS011;32110;45.724;21.276;2023-06-01T05:40:19;7.97;;;4.57;;
46407;SDS011;32110;45.724;21.276;2023-06-01T05:42:44;9.77;;;4.90;;
46407;SDS011;32110;45.724;21.276;2023-06-01T05:45:09;15.03;;;5.37;;
46407;SDS011;32110;45.724;21.276;2023-06-01T05:47:34;12.70;;;5.50;;
46407;SDS011;32110;45.724;21.276;2023-06-01T05:50:00;19.53;;;5.40;;
46407;SDS011;32110;45.724;21.276;2023-06-01T05:52:25;9.75;;;5.25;;
46407;SDS011;32110;45.724;21.276;2023-06-01T05:54:50;7.60;;;4.90;;
46407;SDS011;32110;45.724;21.276;2023-06-01T05:57:18;11.48;;;5.30;;
46407;SDS011;32110;45.724;21.276;2023-06-01T05:59:44;10.32;;;5.65;;
46407;SDS011;32110;45.724;21.276;2023-06-01T06:02:10;9.57;;;4.88;;
46407;SDS011;32110;45.724;21.276;2023-06-01T06:04:36;10.50;;;5.70;;
46407;SDS011;32110;45.724;21.276;2023-06-01T06:07:01;10.57;;;5.80;;
46407;SDS011;32110;45.724;21.276;2023-06-01T06:09:26;10.53;;;5.40;;
46407;SDS011;32110;45.724;21.276;2023-06-01T06:11:52;12.57;;;5.28;;
46407;SDS011;32110;45.724;21.276;2023-06-01T06:14:17;13.50;;;5.80;;
46407;SDS011;32110;45.724;21.276;2023-06-01T06:16:42;8.10;;;5.90;;
46407;SDS011;32110;45.724;21.276;2023-06-01T06:19:07;15.20;;;6.37;;
46407;SDS011;32110;45.724;21.276;2023-06-01T06:21:33;9.40;;;5.47;;
46407;SDS011;32110;45.724;21.276;2023-06-01T06:23:58;14.60;;;6.18;;
46407;SDS011;32110;45.724;21.276;2023-06-01T06:26:24;11.57;;;5.53;;
46407;SDS011;32110;45.724;21.276;2023-06-01T06:28:51;9.05;;;5.90;;
46407;SDS011;32110;45.724;21.276;2023-06-01T06:31:16;9.57;;;5.47;;
46407;SDS011;32110;45.724;21.276;2023-06-01T06:33:41;7.57;;;5.20;;
46407;SDS011;32110;45.724;21.276;2023-06-01T06:36:06;10.03;;;5.60;;
46407;SDS011;32110;45.724;21.276;2023-06-01T06:38:32;7.17;;;5.53;;
46407;SDS011;32110;45.724;21.276;2023-06-01T06:40:57;11.07;;;4.93;;
46407;SDS011;32110;45.724;21.276;2023-06-01T06:43:23;12.13;;;5.45;;
46407;SDS011;32110;45.724;21.276;2023-06-01T06:45:48;11.48;;;5.80;;
46407;SDS011;32110;45.724;21.276;2023-06-01T06:48:14;8.43;;;5.50;;
46407;SDS011;32110;45.724;21.276;2023-06-01T06:50:39;13.23;;;5.80;;
46407;SDS011;32110;45.724;21.276;2023-06-01T06:53:09;12.07;;;5.47;;
46407;SDS011;32110;45.724;21.276;2023-06-01T06:55:34;8.47;;;4.93;;
46407;SDS011;32110;45.724;21.276;2023-06-01T06:57:59;11.30;;;5.17;;
46407;SDS011;32110;45.724;21.276;2023-06-01T07:00:24;8.47;;;5.30;;
46407;SDS011;32110;45.724;21.276;2023-06-01T07:02:50;10.25;;;5.60;;
46407;SDS011;32110;45.724;21.276;2023-06-01T07:05:16;8.27;;;5.10;;
46407;SDS011;32110;45.724;21.276;2023-06-01T07:07:41;9.18;;;5.07;;
46407;SDS011;32110;45.724;21.276;2023-06-01T07:10:07;9.10;;;5.00;;
46407;SDS011;32110;45.724;21.276;2023-06-01T07:12:32;11.05;;;4.78;;
46407;SDS011;32110;45.724;21.276;2023-06-01T07:14:58;11.73;;;5.30;;
46407;SDS011;32110;45.724;21.276;2023-06-01T07:17:24;12.05;;;5.18;;
46407;SDS011;32110;45.724;21.276;2023-06-01T07:19:49;15.40;;;5.03;;
46407;SDS011;32110;45.724;21.276;2023-06-01T07:22:14;7.30;;;5.23;;
46407;SDS011;32110;45.724;21.276;2023-06-01T07:24:42;11.20;;;4.75;;
46407;SDS011;32110;45.724;21.276;2023-06-01T07:27:07;7.07;;;4.65;;
46407;SDS011;32110;45.724;21.276;2023-06-01T07:29:32;9.98;;;5.40;;
46407;SDS011;32110;45.724;21.276;2023-06-01T07:31:58;8.75;;;5.03;;
46407;SDS011;32110;45.724;21.276;2023-06-01T07:34:24;7.03;;;5.15;;
46407;SDS011;32110;45.724;21.276;2023-06-01T07:36:50;8.07;;;4.32;;
46407;SDS011;32110;45.724;21.276;2023-06-01T07:39:15;5.53;;;4.40;;
46407;SDS011;32110;45.724;21.276;2023-06-01T07:41:43;7.80;;;5.03;;
46407;SDS011;32110;45.724;21.276;2023-06-01T07:44:10;8.50;;;5.20;;
46407;SDS011;32110;45.724;21.276;2023-06-01T07:46:35;6.93;;;4.75;;
46407;SDS011;32110;45.724;21.276;2023-06-01T07:49:01;7.55;;;4.25;;
46407;SDS011;32110;45.724;21.276;2023-06-01T07:51:28;9.23;;;4.43;;
46407;SDS011;32110;45.724;21.276;2023-06-01T07:53:54;7.63;;;4.78;;
46407;SDS011;32110;45.724;21.276;2023-06-01T07:56:22;8.50;;;4.95;;
46407;SDS011;32110;45.724;21.276;2023-06-01T07:58:51;7.40;;;4.68;;
46407;SDS011;32110;45.724;21.276;2023-06-01T08:01:17;7.03;;;4.68;;
46407;SDS011;32110;45.724;21.276;2023-06-01T08:03:43;7.63;;;4.68;;
46407;SDS011;32110;45.724;21.276;2023-06-01T08:06:09;6.82;;;4.13;;
46407;SDS011;32110;45.724;21.276;2023-06-01T08:08:34;6.95;;;4.43;;
46407;SDS011;32110;45.724;21.276;2023-06-01T08:11:00;8.43;;;4.57;;
46407;SDS011;32110;45.724;21.276;2023-06-01T08:13:25;8.43;;;4.63;;
46407;SDS011;32110;45.724;21.276;2023-06-01T08:15:51;14.82;;;4.25;;
46407;SDS011;32110;45.724;21.276;2023-06-01T08:18:18;7.80;;;4.47;;
46407;SDS011;32110;45.724;21.276;2023-06-01T08:20:44;5.22;;;4.22;;
46407;SDS011;32110;45.724;21.276;2023-06-01T08:23:10;6.35;;;4.18;;
46407;SDS011;32110;45.724;21.276;2023-06-01T08:25:36;6.63;;;4.00;;
46407;SDS011;32110;45.724;21.276;2023-06-01T08:28:01;6.85;;;4.47;;
46407;SDS011;32110;45.724;21.276;2023-06-01T08:30:28;8.30;;;4.43;;
46407;SDS011;32110;45.724;21.276;2023-06-01T08:32:53;6.53;;;3.83;;
46407;SDS011;32110;45.724;21.276;2023-06-01T08:35:18;9.05;;;4.75;;
46407;SDS011;32110;45.724;21.276;2023-06-01T08:37:44;6.80;;;3.90;;
46407;SDS011;32110;45.724;21.276;2023-06-01T08:40:11;7.85;;;4.40;;
46407;SDS011;32110;45.724;21.276;2023-06-01T08:42:49;7.78;;;4.22;;
46407;SDS011;32110;45.724;21.276;2023-06-01T08:45:22;6.07;;;4.53;;
46407;SDS011;32110;45.724;21.276;2023-06-01T08:47:49;8.90;;;4.22;;
46407;SDS011;32110;45.724;21.276;2023-06-01T08:50:17;6.18;;;4.38;;
46407;SDS011;32110;45.724;21.276;2023-06-01T08:52:43;6.28;;;4.10;;
46407;SDS011;32110;45.724;21.276;2023-06-01T08:55:11;7.00;;;4.28;;
46407;SDS011;32110;45.724;21.276;2023-06-01T08:57:41;6.80;;;4.50;;
46407;SDS011;32110;45.724;21.276;2023-06-01T09:00:16;5.50;;;3.80;;
46407;SDS011;32110;45.724;21.276;2023-06-01T09:02:42;6.65;;;4.03;;
46407;SDS011;32110;45.724;21.276;2023-06-01T09:05:08;5.60;;;3.58;;
46407;SDS011;32110;45.724;21.276;2023-06-01T09:07:34;4.85;;;3.45;;
46407;SDS011;32110;45.724;21.276;2023-06-01T09:10:00;6.00;;;4.10;;
46407;SDS011;32110;45.724;21.276;2023-06-01T09:12:26;8.13;;;3.97;;
46407;SDS011;32110;45.724;21.276;2023-06-01T09:17:31;6.22;;;3.92;;
46407;SDS011;32110;45.724;21.276;2023-06-01T09:19:57;5.80;;;4.20;;
46407;SDS011;32110;45.724;21.276;2023-06-01T09:22:23;7.90;;;4.57;;
46407;SDS011;32110;45.724;21.276;2023-06-01T09:24:54;7.60;;;4.35;;
46407;SDS011;32110;45.724;21.276;2023-06-01T09:27:24;5.70;;;3.90;;
46407;SDS011;32110;45.724;21.276;2023-06-01T09:29:57;4.88;;;4.25;;
46407;SDS011;32110;45.724;21.276;2023-06-01T09:32:26;5.85;;;4.13;;
46407;SDS011;32110;45.724;21.276;2023-06-01T09:34:52;5.80;;;3.80;;
46407;SDS011;32110;45.724;21.276;2023-06-01T09:37:19;6.57;;;4.00;;
46407;SDS011;32110;45.724;21.276;2023-06-01T09:39:45;6.38;;;4.20;;
46407;SDS011;32110;45.724;21.276;2023-06-01T09:42:10;7.90;;;3.60;;
46407;SDS011;32110;45.724;21.276;2023-06-01T09:44:37;5.50;;;3.70;;
46407;SDS011;32110;45.724;21.276;2023-06-01T09:47:05;7.33;;;3.90;;
46407;SDS011;32110;45.724;21.276;2023-06-01T09:49:35;4.68;;;3.63;;
46407;SDS011;32110;45.724;21.276;2023-06-01T09:54:29;7.30;;;5.28;;
46407;SDS011;32110;45.724;21.276;2023-06-01T09:56:59;8.70;;;4.00;;
46407;SDS011;32110;45.724;21.276;2023-06-01T09:59:26;5.28;;;3.80;;
46407;SDS011;32110;45.724;21.276;2023-06-01T10:01:54;5.55;;;4.20;;
46407;SDS011;32110;45.724;21.276;2023-06-01T10:04:25;6.60;;;4.40;;
46407;SDS011;32110;45.724;21.276;2023-06-01T10:06:55;7.78;;;4.88;;
46407;SDS011;32110;45.724;21.276;2023-06-01T10:09:21;5.03;;;4.00;;
46407;SDS011;32110;45.724;21.276;2023-06-01T10:11:49;7.38;;;4.07;;
46407;SDS011;32110;45.724;21.276;2023-06-01T10:16:44;5.60;;;4.05;;
46407;SDS011;32110;45.724;21.276;2023-06-01T10:19:10;5.75;;;4.10;;
46407;SDS011;32110;45.724;21.276;2023-06-01T10:21:37;6.50;;;4.38;;
46407;SDS011;32110;45.724;21.276;2023-06-01T10:24:04;5.82;;;4.35;;
46407;SDS011;32110;45.724;21.276;2023-06-01T10:29:02;5.70;;;4.17;;
46407;SDS011;32110;45.724;21.276;2023-06-01T10:33:57;5.78;;;4.20;;
46407;SDS011;32110;45.724;21.276;2023-06-01T10:36:23;5.93;;;4.90;;
46407;SDS011;32110;45.724;21.276;2023-06-01T10:38:48;8.75;;;4.30;;
46407;SDS011;32110;45.724;21.276;2023-06-01T10:41:30;8.65;;;4.68;;
46407;SDS011;32110;45.724;21.276;2023-06-01T10:43:57;5.88;;;4.10;;
46407;SDS011;32110;45.724;21.276;2023-06-01T10:46:38;6.75;;;3.80;;
46407;SDS011;32110;45.724;21.276;2023-06-01T10:49:05;6.28;;;4.50;;
46407;SDS011;32110;45.724;21.276;2023-06-01T10:51:31;9.48;;;4.45;;
46407;SDS011;32110;45.724;21.276;2023-06-01T10:59:42;6.90;;;4.68;;
46407;SDS011;32110;45.724;21.276;2023-06-01T11:02:08;5.65;;;4.35;;
46407;SDS011;32110;45.724;21.276;2023-06-01T11:04:34;10.05;;;4.65;;
46407;SDS011;32110;45.724;21.276;2023-06-01T11:07:34;6.97;;;4.32;;
46407;SDS011;32110;45.724;21.276;2023-06-01T11:10:03;7.18;;;4.50;;
46407;SDS011;32110;45.724;21.276;2023-06-01T11:13:01;4.72;;;4.00;;
46407;SDS011;32110;45.724;21.276;2023-06-01T11:15:35;7.40;;;4.30;;
46407;SDS011;32110;45.724;21.276;2023-06-01T11:18:40;5.72;;;4.50;;
46407;SDS011;32110;45.724;21.276;2023-06-01T11:21:08;5.07;;;4.38;;
46407;SDS011;32110;45.724;21.276;2023-06-01T11:23:35;5.55;;;4.25;;
46407;SDS011;32110;45.724;21.276;2023-06-01T11:26:05;7.63;;;4.50;;
46407;SDS011;32110;45.724;21.276;2023-06-01T11:28:31;9.83;;;4.40;;
46407;SDS011;32110;45.724;21.276;2023-06-01T11:30:57;6.18;;;4.40;;
46407;SDS011;32110;45.724;21.276;2023-06-01T11:33:26;6.63;;;4.50;;
46407;SDS011;32110;45.724;21.276;2023-06-01T11:35:57;5.75;;;4.38;;
46407;SDS011;32110;45.724;21.276;2023-06-01T11:38:23;9.85;;;4.38;;
46407;SDS011;32110;45.724;21.276;2023-06-01T11:40:58;7.03;;;4.07;;
46407;SDS011;32110;45.724;21.276;2023-06-01T11:43:29;7.50;;;4.20;;
46407;SDS011;32110;45.724;21.276;2023-06-01T11:46:02;6.40;;;4.93;;
46407;SDS011;32110;45.724;21.276;2023-06-01T11:48:32;7.18;;;4.43;;
46407;SDS011;32110;45.724;21.276;2023-06-01T11:50:59;11.38;;;4.65;;
46407;SDS011;32110;45.724;21.276;2023-06-01T11:53:25;9.23;;;4.75;;
46407;SDS011;32110;45.724;21.276;2023-06-01T11:55:52;7.60;;;4.50;;
46407;SDS011;32110;45.724;21.276;2023-06-01T11:58:25;6.95;;;4.28;;
46407;SDS011;32110;45.724;21.276;2023-06-01T12:00:55;10.10;;;4.78;;
46407;SDS011;32110;45.724;21.276;2023-06-01T12:03:22;5.70;;;4.60;;
46407;SDS011;32110;45.724;21.276;2023-06-01T12:05:51;7.15;;;4.63;;
46407;SDS011;32110;45.724;21.276;2023-06-01T12:08:22;5.32;;;4.05;;
46407;SDS011;32110;45.724;21.276;2023-06-01T12:10:49;7.32;;;4.70;;
46407;SDS011;32110;45.724;21.276;2023-06-01T12:13:19;12.23;;;4.30;;
46407;SDS011;32110;45.724;21.276;2023-06-01T12:15:45;5.15;;;4.30;;
46407;SDS011;32110;45.724;21.276;2023-06-01T12:18:11;8.02;;;4.53;;
46407;SDS011;32110;45.724;21.276;2023-06-01T12:25:34;6.68;;;3.63;;
46407;SDS011;32110;45.724;21.276;2023-06-01T12:28:06;5.15;;;4.03;;
46407;SDS011;32110;45.724;21.276;2023-06-01T12:30:35;6.57;;;4.15;;
46407;SDS011;32110;45.724;21.276;2023-06-01T12:33:01;6.88;;;4.18;;
46407;SDS011;32110;45.724;21.276;2023-06-01T12:35:29;6.20;;;4.30;;
46407;SDS011;32110;45.724;21.276;2023-06-01T12:38:08;6.55;;;3.70;;
46407;SDS011;32110;45.724;21.276;2023-06-01T12:40:37;5.28;;;4.03;;
46407;SDS011;32110;45.724;21.276;2023-06-01T12:43:04;6.07;;;3.90;;
46407;SDS011;32110;45.724;21.276;2023-06-01T12:45:36;7.72;;;3.85;;
46407;SDS011;32110;45.724;21.276;2023-06-01T12:48:03;5.60;;;4.05;;
46407;SDS011;32110;45.724;21.276;2023-06-01T12:50:30;8.27;;;4.03;;
46407;SDS011;32110;45.724;21.276;2023-06-01T12:52:55;6.88;;;4.00;;
46407;SDS011;32110;45.724;21.276;2023-06-01T12:55:20;5.47;;;3.72;;
46407;SDS011;32110;45.724;21.276;2023-06-01T12:57:53;5.45;;;4.07;;
46407;SDS011;32110;45.724;21.276;2023-06-01T13:00:19;5.68;;;3.58;;
46407;SDS011;32110;45.724;21.276;2023-06-01T13:02:45;7.45;;;4.03;;
46407;SDS011;32110;45.724;21.276;2023-06-01T13:05:15;7.38;;;3.75;;
46407;SDS011;32110;45.724;21.276;2023-06-01T13:07:44;7.38;;;4.03;;
46407;SDS011;32110;45.724;21.276;2023-06-01T13:10:10;5.18;;;4.00;;
46407;SDS011;32110;45.724;21.276;2023-06-01T13:12:36;6.57;;;3.67;;
46407;SDS011;32110;45.724;21.276;2023-06-01T13:15:02;6.40;;;3.80;;
46407;SDS011;32110;45.724;21.276;2023-06-01T13:17:30;5.88;;;3.85;;
46407;SDS011;32110;45.724;21.276;2023-06-01T13:19:56;9.52;;;3.70;;
46407;SDS011;32110;45.724;21.276;2023-06-01T13:22:21;8.32;;;3.78;;
46407;SDS011;32110;45.724;21.276;2023-06-01T13:24:47;4.88;;;3.75;;
46407;SDS011;32110;45.724;21.276;2023-06-01T13:27:13;6.22;;;4.43;;
46407;SDS011;32110;45.724;21.276;2023-06-01T13:29:39;9.25;;;4.40;;
46407;SDS011;32110;45.724;21.276;2023-06-01T13:32:04;5.40;;;3.88;;
46407;SDS011;32110;45.724;21.276;2023-06-01T13:34:30;7.45;;;4.10;;
46407;SDS011;32110;45.724;21.276;2023-06-01T13:36:56;9.45;;;4.78;;
46407;SDS011;32110;45.724;21.276;2023-06-01T13:39:22;6.22;;;4.72;;
46407;SDS011;32110;45.724;21.276;2023-06-01T13:41:48;6.43;;;4.55;;
46407;SDS011;32110;45.724;21.276;2023-06-01T13:44:13;9.35;;;5.18;;
46407;SDS011;32110;45.724;21.276;2023-06-01T13:46:41;9.82;;;4.72;;
46407;SDS011;32110;45.724;21.276;2023-06-01T13:49:07;7.63;;;4.65;;
46407;SDS011;32110;45.724;21.276;2023-06-01T13:51:33;6.57;;;4.45;;
46407;SDS011;32110;45.724;21.276;2023-06-01T13:53:58;8.48;;;5.28;;
46407;SDS011;32110;45.724;21.276;2023-06-01T13:56:24;7.80;;;4.57;;
46407;SDS011;32110;45.724;21.276;2023-06-01T13:58:50;6.95;;;4.93;;
46407;SDS011;32110;45.724;21.276;2023-06-01T14:01:15;7.03;;;5.15;;
46407;SDS011;32110;45.724;21.276;2023-06-01T14:03:41;13.38;;;5.13;;
46407;SDS011;32110;45.724;21.276;2023-06-01T14:06:06;7.82;;;5.38;;
46407;SDS011;32110;45.724;21.276;2023-06-01T14:08:31;8.20;;;4.45;;
46407;SDS011;32110;45.724;21.276;2023-06-01T14:10:57;6.18;;;4.63;;
46407;SDS011;32110;45.724;21.276;2023-06-01T14:13:22;6.97;;;4.47;;
46407;SDS011;32110;45.724;21.276;2023-06-01T14:15:48;10.25;;;4.78;;
46407;SDS011;32110;45.724;21.276;2023-06-01T14:18:13;5.72;;;4.47;;
46407;SDS011;32110;45.724;21.276;2023-06-01T14:20:38;8.38;;;4.43;;
46407;SDS011;32110;45.724;21.276;2023-06-01T14:23:04;8.30;;;4.72;;
46407;SDS011;32110;45.724;21.276;2023-06-01T14:25:29;11.50;;;7.18;;
46407;SDS011;32110;45.724;21.276;2023-06-01T14:27:55;5.25;;;4.20;;
46407;SDS011;32110;45.724;21.276;2023-06-01T14:30:20;7.75;;;4.28;;
46407;SDS011;32110;45.724;21.276;2023-06-01T14:32:46;4.82;;;3.88;;
46407;SDS011;32110;45.724;21.276;2023-06-01T14:35:11;7.03;;;3.88;;
46407;SDS011;32110;45.724;21.276;2023-06-01T14:37:41;4.47;;;3.35;;
46407;SDS011;32110;45.724;21.276;2023-06-01T14:40:07;5.25;;;3.80;;
46407;SDS011;32110;45.724;21.276;2023-06-01T14:42:33;6.22;;;3.70;;
46407;SDS011;32110;45.724;21.276;2023-06-01T14:44:59;4.38;;;3.60;;
46407;SDS011;32110;45.724;21.276;2023-06-01T14:47:24;6.50;;;3.70;;
46407;SDS011;32110;45.724;21.276;2023-06-01T14:49:49;6.05;;;3.70;;
46407;SDS011;32110;45.724;21.276;2023-06-01T14:52:15;6.90;;;3.50;;
46407;SDS011;32110;45.724;21.276;2023-06-01T14:54:40;7.85;;;4.00;;
46407;SDS011;32110;45.724;21.276;2023-06-01T14:57:06;6.13;;;4.47;;
46407;SDS011;32110;45.724;21.276;2023-06-01T14:59:32;9.70;;;4.50;;
46407;SDS011;32110;45.724;21.276;2023-06-01T15:04:26;5.85;;;4.32;;